sensor_id;sensor_type;location;lat;lon;timestamp;P1;durP1;ratioP1;P2;durP2;ratioP2
15925;SDS011;8062;53.882;10.642;2023-09-08T00:00:19;0.20;;;0.20;;
15925;SDS011;8062;53.882;10.642;2023-09-08T00:01:39;0.20;;;0.20;;
15925;SDS011;8062;53.882;10.642;2023-09-08T00:02:59;0.20;;;0.20;;
15925;SDS011;8062;53.882;10.642;2023-09-08T00:04:18;0.30;;;0.30;;
15925;SDS011;8062;53.882;10.642;2023-09-08T00:05:40;0.10;;;0.10;;
15925;SDS011;8062;53.882;10.642;2023-09-08T00:07:00;0.20;;;0.20;;
15925;SDS011;8062;53.882;10.642;2023-09-08T00:08:19;0.13;;;0.13;;
15925;SDS011;8062;53.882;10.642;2023-09-08T00:09:39;0.20;;;0.20;;
15925;SDS011;8062;53.882;10.642;2023-09-08T00:10:58;0.20;;;0.20;;
15925;SDS011;8062;53.882;10.642;2023-09-08T00:12:18;0.20;;;0.20;;
15925;SDS011;8062;53.882;10.642;2023-09-08T00:13:37;0.20;;;0.20;;
15925;SDS011;8062;53.882;10.642;2023-09-08T00:14:59;0.13;;;0.13;;
15925;SDS011;8062;53.882;10.642;2023-09-08T00:16:18;0.20;;;0.20;;
15925;SDS011;8062;53.882;10.642;2023-09-08T00:17:38;0.20;;;0.20;;
15925;SDS011;8062;53.882;10.642;2023-09-08T00:18:57;0.20;;;0.20;;
15925;SDS011;8062;53.882;10.642;2023-09-08T00:20:17;0.20;;;0.20;;
15925;SDS011;8062;53.882;10.642;2023-09-08T00:21:37;0.10;;;0.10;;
15925;SDS011;8062;53.882;10.642;2023-09-08T00:22:57;0.20;;;0.20;;
15925;SDS011;8062;53.882;10.642;2023-09-08T00:24:16;0.20;;;0.20;;
15925;SDS011;8062;53.882;10.642;2023-09-08T00:25:37;0.20;;;0.20;;
15925;SDS011;8062;53.882;10.642;2023-09-08T00:26:56;0.17;;;0.17;;
15925;SDS011;8062;53.882;10.642;2023-09-08T00:28:16;0.20;;;0.20;;
15925;SDS011;8062;53.882;10.642;2023-09-08T00:29:36;0.20;;;0.20;;
15925;SDS011;8062;53.882;10.642;2023-09-08T00:30:55;0.20;;;0.20;;
15925;SDS011;8062;53.882;10.642;2023-09-08T00:32:15;0.20;;;0.20;;
15925;SDS011;8062;53.882;10.642;2023-09-08T00:33:37;0.20;;;0.20;;
15925;SDS011;8062;53.882;10.642;2023-09-08T00:34:56;0.20;;;0.20;;
15925;SDS011;8062;53.882;10.642;2023-09-08T00:36:16;0.20;;;0.20;;
15925;SDS011;8062;53.882;10.642;2023-09-08T00:37:35;0.20;;;0.20;;
15925;SDS011;8062;53.882;10.642;2023-09-08T00:38:55;0.20;;;0.20;;
15925;SDS011;8062;53.882;10.642;2023-09-08T00:40:15;0.10;;;0.10;;
15925;SDS011;8062;53.882;10.642;2023-09-08T00:41:34;0.20;;;0.20;;
15925;SDS011;8062;53.882;10.642;2023-09-08T00:42:54;0.23;;;0.23;;
15925;SDS011;8062;53.882;10.642;2023-09-08T00:44:13;0.23;;;0.23;;
15925;SDS011;8062;53.882;10.642;2023-09-08T00:45:33;0.10;;;0.10;;
15925;SDS011;8062;53.882;10.642;2023-09-08T00:46:59;0.20;;;0.20;;
15925;SDS011;8062;53.882;10.642;2023-09-08T00:48:18;0.20;;;0.20;;
15925;SDS011;8062;53.882;10.642;2023-09-08T00:49:38;0.20;;;0.20;;
15925;SDS011;8062;53.882;10.642;2023-09-08T00:50:58;0.17;;;0.17;;
15925;SDS011;8062;53.882;10.642;2023-09-08T00:52:18;0.20;;;0.20;;
15925;SDS011;8062;53.882;10.642;2023-09-08T00:53:37;0.20;;;0.20;;
15925;SDS011;8062;53.882;10.642;2023-09-08T00:54:57;0.20;;;0.20;;
15925;SDS011;8062;53.882;10.642;2023-09-08T00:56:18;0.10;;;0.10;;
15925;SDS011;8062;53.882;10.642;2023-09-08T00:57:38;0.10;;;0.10;;
15925;SDS011;8062;53.882;10.642;2023-09-08T00:58:57;0.20;;;0.20;;
15925;SDS011;8062;53.882;10.642;2023-09-08T01:00:17;0.20;;;0.20;;
15925;SDS011;8062;53.882;10.642;2023-09-08T01:01:37;0.10;;;0.10;;
15925;SDS011;8062;53.882;10.642;2023-09-08T01:02:57;0.20;;;0.20;;
15925;SDS011;8062;53.882;10.642;2023-09-08T01:04:16;0.20;;;0.20;;
15925;SDS011;8062;53.882;10.642;2023-09-08T01:05:36;0.20;;;0.20;;
15925;SDS011;8062;53.882;10.642;2023-09-08T01:06:55;0.20;;;0.20;;
15925;SDS011;8062;53.882;10.642;2023-09-08T01:08:15;0.20;;;0.20;;
15925;SDS011;8062;53.882;10.642;2023-09-08T01:09:37;0.20;;;0.20;;
15925;SDS011;8062;53.882;10.642;2023-09-08T01:10:57;0.20;;;0.20;;
15925;SDS011;8062;53.882;10.642;2023-09-08T01:12:16;0.10;;;0.10;;
15925;SDS011;8062;53.882;10.642;2023-09-08T01:13:37;0.20;;;0.20;;
15925;SDS011;8062;53.882;10.642;2023-09-08T01:14:57;0.20;;;0.20;;
15925;SDS011;8062;53.882;10.642;2023-09-08T01:16:16;0.13;;;0.13;;
15925;SDS011;8062;53.882;10.642;2023-09-08T01:17:36;0.20;;;0.20;;
15925;SDS011;8062;53.882;10.642;2023-09-08T01:18:55;0.20;;;0.20;;
15925;SDS011;8062;53.882;10.642;2023-09-08T01:22:11;0.20;;;0.20;;
15925;SDS011;8062;53.882;10.642;2023-09-08T01:25:46;0.20;;;0.20;;
15925;SDS011;8062;53.882;10.642;2023-09-08T01:27:23;0.20;;;0.20;;
15925;SDS011;8062;53.882;10.642;2023-09-08T01:28:45;0.10;;;0.10;;
15925;SDS011;8062;53.882;10.642;2023-09-08T01:30:09;0.30;;;0.30;;
15925;SDS011;8062;53.882;10.642;2023-09-08T01:31:30;0.10;;;0.10;;
15925;SDS011;8062;53.882;10.642;2023-09-08T01:32:51;0.20;;;0.20;;
15925;SDS011;8062;53.882;10.642;2023-09-08T01:34:12;0.20;;;0.20;;
15925;SDS011;8062;53.882;10.642;2023-09-08T01:35:32;0.10;;;0.10;;
15925;SDS011;8062;53.882;10.642;2023-09-08T01:36:52;0.20;;;0.20;;
15925;SDS011;8062;53.882;10.642;2023-09-08T01:38:12;0.20;;;0.20;;
15925;SDS011;8062;53.882;10.642;2023-09-08T01:39:32;0.20;;;0.20;;
15925;SDS011;8062;53.882;10.642;2023-09-08T01:40:52;0.20;;;0.20;;
15925;SDS011;8062;53.882;10.642;2023-09-08T01:42:11;0.20;;;0.20;;
15925;SDS011;8062;53.882;10.642;2023-09-08T01:43:31;0.20;;;0.20;;
15925;SDS011;8062;53.882;10.642;2023-09-08T01:44:50;0.30;;;0.30;;
15925;SDS011;8062;53.882;10.642;2023-09-08T01:46:10;0.20;;;0.20;;
15925;SDS011;8062;53.882;10.642;2023-09-08T01:47:29;0.20;;;0.20;;
15925;SDS011;8062;53.882;10.642;2023-09-08T01:48:49;0.20;;;0.20;;
15925;SDS011;8062;53.882;10.642;2023-09-08T01:50:09;0.20;;;0.20;;
15925;SDS011;8062;53.882;10.642;2023-09-08T01:51:28;0.33;;;0.33;;
15925;SDS011;8062;53.882;10.642;2023-09-08T01:52:48;0.20;;;0.20;;
15925;SDS011;8062;53.882;10.642;2023-09-08T01:54:07;0.30;;;0.30;;
15925;SDS011;8062;53.882;10.642;2023-09-08T01:55:27;0.20;;;0.20;;
15925;SDS011;8062;53.882;10.642;2023-09-08T01:56:49;0.20;;;0.20;;
15925;SDS011;8062;53.882;10.642;2023-09-08T01:58:10;0.17;;;0.17;;
15925;SDS011;8062;53.882;10.642;2023-09-08T01:59:29;0.20;;;0.20;;
15925;SDS011;8062;53.882;10.642;2023-09-08T02:00:49;0.20;;;0.20;;
15925;SDS011;8062;53.882;10.642;2023-09-08T02:02:10;0.20;;;0.20;;
15925;SDS011;8062;53.882;10.642;2023-09-08T02:03:31;0.20;;;0.20;;
15925;SDS011;8062;53.882;10.642;2023-09-08T02:04:53;0.10;;;0.10;;
15925;SDS011;8062;53.882;10.642;2023-09-08T02:06:14;0.30;;;0.30;;
15925;SDS011;8062;53.882;10.642;2023-09-08T02:07:33;0.20;;;0.20;;
15925;SDS011;8062;53.882;10.642;2023-09-08T02:08:53;0.20;;;0.20;;
15925;SDS011;8062;53.882;10.642;2023-09-08T02:10:13;0.20;;;0.20;;
15925;SDS011;8062;53.882;10.642;2023-09-08T02:11:33;0.30;;;0.30;;
15925;SDS011;8062;53.882;10.642;2023-09-08T02:12:52;0.30;;;0.30;;
15925;SDS011;8062;53.882;10.642;2023-09-08T02:14:12;0.13;;;0.13;;
15925;SDS011;8062;53.882;10.642;2023-09-08T02:15:34;0.20;;;0.20;;
15925;SDS011;8062;53.882;10.642;2023-09-08T02:16:55;0.20;;;0.20;;
15925;SDS011;8062;53.882;10.642;2023-09-08T02:18:16;0.20;;;0.20;;
15925;SDS011;8062;53.882;10.642;2023-09-08T02:19:36;0.20;;;0.20;;
15925;SDS011;8062;53.882;10.642;2023-09-08T02:20:55;0.30;;;0.30;;
15925;SDS011;8062;53.882;10.642;2023-09-08T02:22:15;0.20;;;0.20;;
15925;SDS011;8062;53.882;10.642;2023-09-08T02:23:35;0.20;;;0.20;;
15925;SDS011;8062;53.882;10.642;2023-09-08T02:24:54;0.20;;;0.20;;
15925;SDS011;8062;53.882;10.642;2023-09-08T02:26:15;0.20;;;0.20;;
15925;SDS011;8062;53.882;10.642;2023-09-08T02:27:35;0.30;;;0.30;;
15925;SDS011;8062;53.882;10.642;2023-09-08T02:28:55;0.20;;;0.20;;
15925;SDS011;8062;53.882;10.642;2023-09-08T02:30:15;0.20;;;0.20;;
15925;SDS011;8062;53.882;10.642;2023-09-08T02:31:35;0.20;;;0.20;;
15925;SDS011;8062;53.882;10.642;2023-09-08T02:32:57;0.20;;;0.20;;
15925;SDS011;8062;53.882;10.642;2023-09-08T02:34:17;0.27;;;0.27;;
15925;SDS011;8062;53.882;10.642;2023-09-08T02:35:37;0.20;;;0.20;;
15925;SDS011;8062;53.882;10.642;2023-09-08T02:36:58;0.20;;;0.20;;
15925;SDS011;8062;53.882;10.642;2023-09-08T02:38:19;0.30;;;0.30;;
15925;SDS011;8062;53.882;10.642;2023-09-08T02:39:38;0.20;;;0.20;;
15925;SDS011;8062;53.882;10.642;2023-09-08T02:40:58;0.23;;;0.23;;
15925;SDS011;8062;53.882;10.642;2023-09-08T02:42:18;0.30;;;0.30;;
15925;SDS011;8062;53.882;10.642;2023-09-08T02:43:38;0.13;;;0.13;;
15925;SDS011;8062;53.882;10.642;2023-09-08T02:44:57;0.20;;;0.20;;
15925;SDS011;8062;53.882;10.642;2023-09-08T02:46:17;0.20;;;0.20;;
15925;SDS011;8062;53.882;10.642;2023-09-08T02:47:36;0.20;;;0.20;;
15925;SDS011;8062;53.882;10.642;2023-09-08T02:48:56;0.20;;;0.20;;
15925;SDS011;8062;53.882;10.642;2023-09-08T02:50:16;0.20;;;0.20;;
15925;SDS011;8062;53.882;10.642;2023-09-08T02:51:36;0.20;;;0.20;;
15925;SDS011;8062;53.882;10.642;2023-09-08T02:52:55;0.20;;;0.20;;
15925;SDS011;8062;53.882;10.642;2023-09-08T02:54:15;0.20;;;0.20;;
15925;SDS011;8062;53.882;10.642;2023-09-08T02:55:35;0.20;;;0.20;;
15925;SDS011;8062;53.882;10.642;2023-09-08T02:56:55;0.30;;;0.30;;
15925;SDS011;8062;53.882;10.642;2023-09-08T02:58:14;0.40;;;0.40;;
15925;SDS011;8062;53.882;10.642;2023-09-08T02:59:34;0.20;;;0.20;;
15925;SDS011;8062;53.882;10.642;2023-09-08T03:00:54;0.20;;;0.20;;
15925;SDS011;8062;53.882;10.642;2023-09-08T03:02:14;0.20;;;0.20;;
15925;SDS011;8062;53.882;10.642;2023-09-08T03:03:33;0.20;;;0.20;;
15925;SDS011;8062;53.882;10.642;2023-09-08T03:04:54;0.20;;;0.20;;
15925;SDS011;8062;53.882;10.642;2023-09-08T03:06:14;0.20;;;0.20;;
15925;SDS011;8062;53.882;10.642;2023-09-08T03:07:37;0.30;;;0.30;;
15925;SDS011;8062;53.882;10.642;2023-09-08T03:08:58;0.20;;;0.20;;
15925;SDS011;8062;53.882;10.642;2023-09-08T03:10:17;0.30;;;0.30;;
15925;SDS011;8062;53.882;10.642;2023-09-08T03:11:37;0.20;;;0.20;;
15925;SDS011;8062;53.882;10.642;2023-09-08T03:12:57;0.20;;;0.20;;
15925;SDS011;8062;53.882;10.642;2023-09-08T03:14:16;0.30;;;0.30;;
15925;SDS011;8062;53.882;10.642;2023-09-08T03:15:36;0.30;;;0.30;;
15925;SDS011;8062;53.882;10.642;2023-09-08T03:16:55;0.23;;;0.23;;
15925;SDS011;8062;53.882;10.642;2023-09-08T03:18:15;0.20;;;0.20;;
15925;SDS011;8062;53.882;10.642;2023-09-08T03:19:35;0.20;;;0.20;;
15925;SDS011;8062;53.882;10.642;2023-09-08T03:20:55;0.20;;;0.20;;
15925;SDS011;8062;53.882;10.642;2023-09-08T03:22:15;0.20;;;0.20;;
15925;SDS011;8062;53.882;10.642;2023-09-08T03:23:35;0.30;;;0.30;;
15925;SDS011;8062;53.882;10.642;2023-09-08T03:24:55;0.20;;;0.20;;
15925;SDS011;8062;53.882;10.642;2023-09-08T03:26:15;0.30;;;0.30;;
15925;SDS011;8062;53.882;10.642;2023-09-08T03:27:35;0.20;;;0.20;;
15925;SDS011;8062;53.882;10.642;2023-09-08T03:28:55;0.20;;;0.20;;
15925;SDS011;8062;53.882;10.642;2023-09-08T03:30:14;0.20;;;0.20;;
15925;SDS011;8062;53.882;10.642;2023-09-08T03:31:36;0.27;;;0.27;;
15925;SDS011;8062;53.882;10.642;2023-09-08T03:32:55;0.20;;;0.20;;
15925;SDS011;8062;53.882;10.642;2023-09-08T03:34:15;0.20;;;0.20;;
15925;SDS011;8062;53.882;10.642;2023-09-08T03:35:35;0.20;;;0.20;;
15925;SDS011;8062;53.882;10.642;2023-09-08T03:36:55;0.20;;;0.20;;
15925;SDS011;8062;53.882;10.642;2023-09-08T03:38:14;0.23;;;0.23;;
15925;SDS011;8062;53.882;10.642;2023-09-08T03:39:34;0.20;;;0.20;;
15925;SDS011;8062;53.882;10.642;2023-09-08T03:40:54;0.20;;;0.20;;
15925;SDS011;8062;53.882;10.642;2023-09-08T03:42:14;0.30;;;0.30;;
15925;SDS011;8062;53.882;10.642;2023-09-08T03:43:33;0.30;;;0.30;;
15925;SDS011;8062;53.882;10.642;2023-09-08T03:44:54;0.20;;;0.20;;
15925;SDS011;8062;53.882;10.642;2023-09-08T03:46:14;0.20;;;0.20;;
15925;SDS011;8062;53.882;10.642;2023-09-08T03:47:33;0.30;;;0.30;;
15925;SDS011;8062;53.882;10.642;2023-09-08T03:48:53;0.20;;;0.20;;
15925;SDS011;8062;53.882;10.642;2023-09-08T03:50:19;0.30;;;0.30;;
15925;SDS011;8062;53.882;10.642;2023-09-08T03:51:39;0.20;;;0.20;;
15925;SDS011;8062;53.882;10.642;2023-09-08T03:52:58;0.20;;;0.20;;
15925;SDS011;8062;53.882;10.642;2023-09-08T03:54:18;0.20;;;0.20;;
15925;SDS011;8062;53.882;10.642;2023-09-08T03:55:37;0.30;;;0.30;;
15925;SDS011;8062;53.882;10.642;2023-09-08T03:56:57;0.30;;;0.30;;
15925;SDS011;8062;53.882;10.642;2023-09-08T03:58:17;0.23;;;0.23;;
15925;SDS011;8062;53.882;10.642;2023-09-08T03:59:37;0.20;;;0.20;;
15925;SDS011;8062;53.882;10.642;2023-09-08T04:00:57;0.20;;;0.20;;
15925;SDS011;8062;53.882;10.642;2023-09-08T04:02:16;0.20;;;0.20;;
15925;SDS011;8062;53.882;10.642;2023-09-08T04:03:36;0.20;;;0.20;;
15925;SDS011;8062;53.882;10.642;2023-09-08T04:04:56;0.30;;;0.30;;
15925;SDS011;8062;53.882;10.642;2023-09-08T04:06:15;0.23;;;0.23;;
15925;SDS011;8062;53.882;10.642;2023-09-08T04:07:35;0.20;;;0.20;;
15925;SDS011;8062;53.882;10.642;2023-09-08T04:08:54;0.20;;;0.20;;
15925;SDS011;8062;53.882;10.642;2023-09-08T04:10:14;0.30;;;0.30;;
15925;SDS011;8062;53.882;10.642;2023-09-08T04:11:33;0.20;;;0.20;;
15925;SDS011;8062;53.882;10.642;2023-09-08T04:12:53;0.30;;;0.30;;
15925;SDS011;8062;53.882;10.642;2023-09-08T04:14:12;0.30;;;0.30;;
15925;SDS011;8062;53.882;10.642;2023-09-08T04:15:32;0.30;;;0.30;;
15925;SDS011;8062;53.882;10.642;2023-09-08T04:16:51;0.10;;;0.10;;
15925;SDS011;8062;53.882;10.642;2023-09-08T04:18:12;0.30;;;0.30;;
15925;SDS011;8062;53.882;10.642;2023-09-08T04:19:31;0.23;;;0.23;;
15925;SDS011;8062;53.882;10.642;2023-09-08T04:20:51;0.30;;;0.30;;
15925;SDS011;8062;53.882;10.642;2023-09-08T04:22:10;0.20;;;0.20;;
15925;SDS011;8062;53.882;10.642;2023-09-08T04:23:30;0.30;;;0.30;;
15925;SDS011;8062;53.882;10.642;2023-09-08T04:24:50;0.20;;;0.20;;
15925;SDS011;8062;53.882;10.642;2023-09-08T04:26:10;0.20;;;0.20;;
15925;SDS011;8062;53.882;10.642;2023-09-08T04:27:29;0.30;;;0.30;;
15925;SDS011;8062;53.882;10.642;2023-09-08T04:28:49;0.30;;;0.30;;
15925;SDS011;8062;53.882;10.642;2023-09-08T04:30:09;0.20;;;0.20;;
15925;SDS011;8062;53.882;10.642;2023-09-08T04:31:29;0.20;;;0.20;;
15925;SDS011;8062;53.882;10.642;2023-09-08T04:32:48;0.20;;;0.20;;
15925;SDS011;8062;53.882;10.642;2023-09-08T04:34:08;0.20;;;0.20;;
15925;SDS011;8062;53.882;10.642;2023-09-08T04:35:28;0.30;;;0.30;;
15925;SDS011;8062;53.882;10.642;2023-09-08T04:36:47;0.30;;;0.30;;
15925;SDS011;8062;53.882;10.642;2023-09-08T04:38:07;0.20;;;0.20;;
15925;SDS011;8062;53.882;10.642;2023-09-08T04:39:27;0.20;;;0.20;;
15925;SDS011;8062;53.882;10.642;2023-09-08T04:40:47;0.20;;;0.20;;
15925;SDS011;8062;53.882;10.642;2023-09-08T04:42:07;0.20;;;0.20;;
15925;SDS011;8062;53.882;10.642;2023-09-08T04:43:26;0.33;;;0.33;;
15925;SDS011;8062;53.882;10.642;2023-09-08T04:44:46;0.20;;;0.20;;
15925;SDS011;8062;53.882;10.642;2023-09-08T04:46:05;0.20;;;0.20;;
15925;SDS011;8062;53.882;10.642;2023-09-08T04:47:25;0.20;;;0.20;;
15925;SDS011;8062;53.882;10.642;2023-09-08T04:48:45;0.20;;;0.20;;
15925;SDS011;8062;53.882;10.642;2023-09-08T04:50:04;0.30;;;0.30;;
15925;SDS011;8062;53.882;10.642;2023-09-08T04:51:24;0.30;;;0.30;;
15925;SDS011;8062;53.882;10.642;2023-09-08T04:52:44;0.20;;;0.20;;
15925;SDS011;8062;53.882;10.642;2023-09-08T04:54:04;0.20;;;0.20;;
15925;SDS011;8062;53.882;10.642;2023-09-08T04:55:24;0.30;;;0.30;;
15925;SDS011;8062;53.882;10.642;2023-09-08T04:56:43;0.20;;;0.20;;
15925;SDS011;8062;53.882;10.642;2023-09-08T04:58:03;0.20;;;0.20;;
15925;SDS011;8062;53.882;10.642;2023-09-08T04:59:23;0.30;;;0.30;;
15925;SDS011;8062;53.882;10.642;2023-09-08T05:00:45;0.30;;;0.30;;
15925;SDS011;8062;53.882;10.642;2023-09-08T05:02:05;0.30;;;0.30;;
15925;SDS011;8062;53.882;10.642;2023-09-08T05:03:25;0.30;;;0.30;;
15925;SDS011;8062;53.882;10.642;2023-09-08T05:04:45;0.30;;;0.30;;
15925;SDS011;8062;53.882;10.642;2023-09-08T05:06:04;0.30;;;0.30;;
15925;SDS011;8062;53.882;10.642;2023-09-08T05:07:24;0.30;;;0.30;;
15925;SDS011;8062;53.882;10.642;2023-09-08T05:08:44;0.40;;;0.40;;
15925;SDS011;8062;53.882;10.642;2023-09-08T05:10:04;0.30;;;0.30;;
15925;SDS011;8062;53.882;10.642;2023-09-08T05:11:27;0.30;;;0.30;;
15925;SDS011;8062;53.882;10.642;2023-09-08T05:12:47;0.30;;;0.30;;
15925;SDS011;8062;53.882;10.642;2023-09-08T05:14:07;0.17;;;0.17;;
15925;SDS011;8062;53.882;10.642;2023-09-08T05:15:27;0.30;;;0.30;;
15925;SDS011;8062;53.882;10.642;2023-09-08T05:16:48;0.30;;;0.30;;
15925;SDS011;8062;53.882;10.642;2023-09-08T05:18:15;0.20;;;0.20;;
15925;SDS011;8062;53.882;10.642;2023-09-08T05:19:34;0.30;;;0.30;;
15925;SDS011;8062;53.882;10.642;2023-09-08T05:20:55;0.30;;;0.30;;
15925;SDS011;8062;53.882;10.642;2023-09-08T05:22:15;0.20;;;0.20;;
15925;SDS011;8062;53.882;10.642;2023-09-08T05:23:34;0.30;;;0.30;;
15925;SDS011;8062;53.882;10.642;2023-09-08T05:24:54;0.20;;;0.20;;
15925;SDS011;8062;53.882;10.642;2023-09-08T05:26:14;0.20;;;0.20;;
15925;SDS011;8062;53.882;10.642;2023-09-08T05:27:33;0.20;;;0.20;;
15925;SDS011;8062;53.882;10.642;2023-09-08T05:28:53;0.30;;;0.30;;
15925;SDS011;8062;53.882;10.642;2023-09-08T05:30:13;0.30;;;0.30;;
15925;SDS011;8062;53.882;10.642;2023-09-08T05:31:34;0.30;;;0.30;;
15925;SDS011;8062;53.882;10.642;2023-09-08T05:32:53;0.20;;;0.20;;
15925;SDS011;8062;53.882;10.642;2023-09-08T05:34:14;0.20;;;0.20;;
15925;SDS011;8062;53.882;10.642;2023-09-08T05:35:34;0.30;;;0.30;;
15925;SDS011;8062;53.882;10.642;2023-09-08T05:36:53;0.20;;;0.20;;
15925;SDS011;8062;53.882;10.642;2023-09-08T05:38:13;0.30;;;0.30;;
15925;SDS011;8062;53.882;10.642;2023-09-08T05:39:33;0.20;;;0.20;;
15925;SDS011;8062;53.882;10.642;2023-09-08T05:40:53;0.20;;;0.20;;
15925;SDS011;8062;53.882;10.642;2023-09-08T05:42:14;0.20;;;0.20;;
15925;SDS011;8062;53.882;10.642;2023-09-08T05:43:33;0.20;;;0.20;;
15925;SDS011;8062;53.882;10.642;2023-09-08T05:44:54;0.20;;;0.20;;
15925;SDS011;8062;53.882;10.642;2023-09-08T05:46:14;0.20;;;0.20;;
15925;SDS011;8062;53.882;10.642;2023-09-08T05:47:34;0.20;;;0.20;;
15925;SDS011;8062;53.882;10.642;2023-09-08T05:48:55;0.30;;;0.30;;
15925;SDS011;8062;53.882;10.642;2023-09-08T05:50:14;0.20;;;0.20;;
15925;SDS011;8062;53.882;10.642;2023-09-08T05:51:34;0.20;;;0.20;;
15925;SDS011;8062;53.882;10.642;2023-09-08T05:52:54;0.20;;;0.20;;
15925;SDS011;8062;53.882;10.642;2023-09-08T05:54:15;0.20;;;0.20;;
15925;SDS011;8062;53.882;10.642;2023-09-08T05:55:35;0.30;;;0.30;;
15925;SDS011;8062;53.882;10.642;2023-09-08T05:56:54;0.20;;;0.20;;
15925;SDS011;8062;53.882;10.642;2023-09-08T05:58:14;0.10;;;0.10;;
15925;SDS011;8062;53.882;10.642;2023-09-08T05:59:34;0.20;;;0.20;;
15925;SDS011;8062;53.882;10.642;2023-09-08T06:00:53;0.20;;;0.20;;
15925;SDS011;8062;53.882;10.642;2023-09-08T06:02:13;0.20;;;0.20;;
15925;SDS011;8062;53.882;10.642;2023-09-08T06:03:33;0.20;;;0.20;;
15925;SDS011;8062;53.882;10.642;2023-09-08T06:04:52;0.20;;;0.20;;
15925;SDS011;8062;53.882;10.642;2023-09-08T06:06:12;0.30;;;0.30;;
15925;SDS011;8062;53.882;10.642;2023-09-08T06:07:32;0.17;;;0.17;;
15925;SDS011;8062;53.882;10.642;2023-09-08T06:08:51;0.13;;;0.13;;
15925;SDS011;8062;53.882;10.642;2023-09-08T06:10:11;0.20;;;0.20;;
15925;SDS011;8062;53.882;10.642;2023-09-08T06:11:31;0.20;;;0.20;;
15925;SDS011;8062;53.882;10.642;2023-09-08T06:12:50;0.20;;;0.20;;
15925;SDS011;8062;53.882;10.642;2023-09-08T06:14:10;0.20;;;0.20;;
15925;SDS011;8062;53.882;10.642;2023-09-08T06:15:32;0.10;;;0.10;;
15925;SDS011;8062;53.882;10.642;2023-09-08T06:16:52;0.20;;;0.20;;
15925;SDS011;8062;53.882;10.642;2023-09-08T06:18:12;0.20;;;0.20;;
15925;SDS011;8062;53.882;10.642;2023-09-08T06:19:33;0.10;;;0.10;;
15925;SDS011;8062;53.882;10.642;2023-09-08T06:20:52;0.23;;;0.23;;
15925;SDS011;8062;53.882;10.642;2023-09-08T06:22:12;0.20;;;0.20;;
15925;SDS011;8062;53.882;10.642;2023-09-08T06:23:31;0.20;;;0.20;;
15925;SDS011;8062;53.882;10.642;2023-09-08T06:24:52;0.20;;;0.20;;
15925;SDS011;8062;53.882;10.642;2023-09-08T06:26:12;0.20;;;0.20;;
15925;SDS011;8062;53.882;10.642;2023-09-08T06:27:32;0.20;;;0.20;;
15925;SDS011;8062;53.882;10.642;2023-09-08T06:28:53;0.20;;;0.20;;
15925;SDS011;8062;53.882;10.642;2023-09-08T06:30:12;0.20;;;0.20;;
15925;SDS011;8062;53.882;10.642;2023-09-08T06:31:37;0.30;;;0.30;;
15925;SDS011;8062;53.882;10.642;2023-09-08T06:32:56;0.23;;;0.23;;
15925;SDS011;8062;53.882;10.642;2023-09-08T06:34:16;0.20;;;0.20;;
15925;SDS011;8062;53.882;10.642;2023-09-08T06:35:40;0.20;;;0.20;;
15925;SDS011;8062;53.882;10.642;2023-09-08T06:36:59;0.20;;;0.20;;
15925;SDS011;8062;53.882;10.642;2023-09-08T06:38:19;0.23;;;0.23;;
15925;SDS011;8062;53.882;10.642;2023-09-08T06:39:39;0.30;;;0.30;;
15925;SDS011;8062;53.882;10.642;2023-09-08T06:40:58;0.20;;;0.20;;
15925;SDS011;8062;53.882;10.642;2023-09-08T06:42:19;0.17;;;0.17;;
15925;SDS011;8062;53.882;10.642;2023-09-08T06:43:44;0.30;;;0.30;;
15925;SDS011;8062;53.882;10.642;2023-09-08T06:45:15;0.20;;;0.20;;
15925;SDS011;8062;53.882;10.642;2023-09-08T06:46:34;0.10;;;0.10;;
15925;SDS011;8062;53.882;10.642;2023-09-08T06:47:54;0.10;;;0.10;;
15925;SDS011;8062;53.882;10.642;2023-09-08T06:49:14;0.10;;;0.10;;
15925;SDS011;8062;53.882;10.642;2023-09-08T06:50:34;0.20;;;0.20;;
15925;SDS011;8062;53.882;10.642;2023-09-08T06:51:54;0.40;;;0.40;;
15925;SDS011;8062;53.882;10.642;2023-09-08T06:53:13;0.60;;;0.60;;
15925;SDS011;8062;53.882;10.642;2023-09-08T06:54:33;0.65;;;0.65;;
15925;SDS011;8062;53.882;10.642;2023-09-08T06:55:53;0.30;;;0.30;;
15925;SDS011;8062;53.882;10.642;2023-09-08T06:57:12;0.20;;;0.20;;
15925;SDS011;8062;53.882;10.642;2023-09-08T06:58:32;0.10;;;0.10;;
15925;SDS011;8062;53.882;10.642;2023-09-08T06:59:52;0.10;;;0.10;;
15925;SDS011;8062;53.882;10.642;2023-09-08T07:01:12;0.00;;;0.00;;
15925;SDS011;8062;53.882;10.642;2023-09-08T07:02:32;0.10;;;0.10;;
15925;SDS011;8062;53.882;10.642;2023-09-08T07:03:51;0.00;;;0.00;;
15925;SDS011;8062;53.882;10.642;2023-09-08T07:05:11;0.00;;;0.00;;
15925;SDS011;8062;53.882;10.642;2023-09-08T07:06:31;0.00;;;0.00;;
15925;SDS011;8062;53.882;10.642;2023-09-08T07:07:50;0.00;;;0.00;;
15925;SDS011;8062;53.882;10.642;2023-09-08T07:09:10;0.00;;;0.00;;
15925;SDS011;8062;53.882;10.642;2023-09-08T07:10:30;0.00;;;0.00;;
15925;SDS011;8062;53.882;10.642;2023-09-08T07:11:49;0.00;;;0.00;;
15925;SDS011;8062;53.882;10.642;2023-09-08T07:13:09;0.00;;;0.00;;
15925;SDS011;8062;53.882;10.642;2023-09-08T07:14:31;0.00;;;0.00;;
15925;SDS011;8062;53.882;10.642;2023-09-08T07:15:51;0.00;;;0.00;;
15925;SDS011;8062;53.882;10.642;2023-09-08T07:17:10;0.00;;;0.00;;
15925;SDS011;8062;53.882;10.642;2023-09-08T07:18:30;0.00;;;0.00;;
15925;SDS011;8062;53.882;10.642;2023-09-08T07:19:54;0.00;;;0.00;;
15925;SDS011;8062;53.882;10.642;2023-09-08T07:21:14;0.00;;;0.00;;
15925;SDS011;8062;53.882;10.642;2023-09-08T07:22:35;0.00;;;0.00;;
15925;SDS011;8062;53.882;10.642;2023-09-08T07:23:54;0.00;;;0.00;;
15925;SDS011;8062;53.882;10.642;2023-09-08T07:25:14;0.00;;;0.00;;
15925;SDS011;8062;53.882;10.642;2023-09-08T07:26:33;0.00;;;0.00;;
15925;SDS011;8062;53.882;10.642;2023-09-08T07:27:53;0.00;;;0.00;;
15925;SDS011;8062;53.882;10.642;2023-09-08T07:29:13;0.00;;;0.00;;
15925;SDS011;8062;53.882;10.642;2023-09-08T07:30:33;0.00;;;0.00;;
15925;SDS011;8062;53.882;10.642;2023-09-08T07:31:52;0.00;;;0.00;;
15925;SDS011;8062;53.882;10.642;2023-09-08T07:33:13;0.00;;;0.00;;
15925;SDS011;8062;53.882;10.642;2023-09-08T07:34:32;0.00;;;0.00;;
15925;SDS011;8062;53.882;10.642;2023-09-08T07:35:52;0.00;;;0.00;;
15925;SDS011;8062;53.882;10.642;2023-09-08T07:37:12;0.00;;;0.00;;
15925;SDS011;8062;53.882;10.642;2023-09-08T07:38:32;0.00;;;0.00;;
15925;SDS011;8062;53.882;10.642;2023-09-08T07:39:53;0.00;;;0.00;;
15925;SDS011;8062;53.882;10.642;2023-09-08T07:41:13;0.00;;;0.00;;
15925;SDS011;8062;53.882;10.642;2023-09-08T07:42:33;0.00;;;0.00;;
15925;SDS011;8062;53.882;10.642;2023-09-08T07:43:53;0.00;;;0.00;;
15925;SDS011;8062;53.882;10.642;2023-09-08T07:45:16;0.00;;;0.00;;
15925;SDS011;8062;53.882;10.642;2023-09-08T07:46:35;0.00;;;0.00;;
15925;SDS011;8062;53.882;10.642;2023-09-08T07:47:55;0.00;;;0.00;;
15925;SDS011;8062;53.882;10.642;2023-09-08T07:49:14;0.00;;;0.00;;
15925;SDS011;8062;53.882;10.642;2023-09-08T07:50:34;0.00;;;0.00;;
15925;SDS011;8062;53.882;10.642;2023-09-08T07:51:53;0.00;;;0.00;;
15925;SDS011;8062;53.882;10.642;2023-09-08T07:53:13;0.00;;;0.00;;
15925;SDS011;8062;53.882;10.642;2023-09-08T07:54:33;0.00;;;0.00;;
15925;SDS011;8062;53.882;10.642;2023-09-08T07:55:52;0.00;;;0.00;;
15925;SDS011;8062;53.882;10.642;2023-09-08T07:57:12;0.00;;;0.00;;
15925;SDS011;8062;53.882;10.642;2023-09-08T07:58:31;0.00;;;0.00;;
15925;SDS011;8062;53.882;10.642;2023-09-08T07:59:51;0.00;;;0.00;;
15925;SDS011;8062;53.882;10.642;2023-09-08T08:01:12;0.00;;;0.00;;
15925;SDS011;8062;53.882;10.642;2023-09-08T08:02:32;0.00;;;0.00;;
15925;SDS011;8062;53.882;10.642;2023-09-08T08:03:52;0.00;;;0.00;;
15925;SDS011;8062;53.882;10.642;2023-09-08T08:05:12;0.00;;;0.00;;
15925;SDS011;8062;53.882;10.642;2023-09-08T08:06:31;0.00;;;0.00;;